Time;durP1;ratioP1;P1;durP2;ratioP2;P2;SDS_P1;SDS_P2;PMS_P1;PMS_P2;Temp;Humidity;BMP_temperature;BMP_pressure;BME280_temperature;BME280_humidity;BME280_pressure;Samples;Min_cycle;Max_cycle;Signal;HPM_P1;HPM_P2
2023/08/09 00:02:18;;;;;;;1999.90;999.90;;;;;;;;;;6685447;89;20184;-79
2023/08/09 00:12:19;;;;;;;1999.90;999.90;;;;;;;;;;6675919;89;20804;-79
2023/08/09 00:22:20;;;;;;;1999.90;999.90;;;;;;;;;;6674994;89;20211;-79
2023/08/09 00:32:21;;;;;;;1999.90;999.90;;;;;;;;;;6678572;89;20242;-81
2023/08/09 00:42:25;;;;;;;1999.90;999.90;;;;;;;;;;6686687;89;20622;-79
2023/08/09 00:52:27;;;;;;;1999.90;999.90;;;;;;;;;;6678707;89;20292;-78
2023/08/09 01:02:28;;;;;;;1999.90;999.90;;;;;;;;;;6683855;89;20684;-79
2023/08/09 01:12:30;;;;;;;1999.90;999.90;;;;;;;;;;6684423;89;20198;-79
2023/08/09 01:22:33;;;;;;;1999.90;999.90;;;;;;;;;;6679006;89;20230;-79
2023/08/09 01:32:34;;;;;;;1999.90;999.90;;;;;;;;;;6677664;89;20727;-79
2023/08/09 01:42:41;;;;;;;1999.90;999.90;;;;;;;;;;6677443;89;20182;-78
2023/08/09 01:52:42;;;;;;;1999.90;999.90;;;;;;;;;;6676123;89;20208;-78
2023/08/09 02:02:43;;;;;;;1999.90;999.90;;;;;;;;;;6681022;88;20183;-78
2023/08/09 02:23:26;;;;;;;1999.90;999.90;;;;;;;;;;6697850;89;20160;-84
2023/08/09 02:33:28;;;;;;;1999.90;999.90;;;;;;;;;;6696418;88;20210;-83
2023/08/09 02:43:29;;;;;;;1999.90;999.90;;;;;;;;;;6693606;89;20164;-83
2023/08/09 02:53:34;;;;;;;1999.90;999.90;;;;;;;;;;6693808;89;20278;-83
2023/08/09 03:03:36;;;;;;;;;;;;;;;;;;6691687;89;20252;-82
2023/08/09 03:13:38;;;;;;;1999.90;999.90;;;;;;;;;;6694082;89;20034;-83
2023/08/09 03:23:39;;;;;;;1999.90;999.90;;;;;;;;;;6693709;89;20280;-84
2023/08/09 03:33:40;;;;;;;1999.90;999.90;;;;;;;;;;6692778;89;20175;-83
2023/08/09 03:43:41;;;;;;;1999.90;999.90;;;;;;;;;;6688190;89;20191;-81
2023/08/09 03:53:42;;;;;;;1999.90;999.90;;;;;;;;;;6683003;89;20927;-81
2023/08/09 04:03:43;;;;;;;1999.90;999.90;;;;;;;;;;6681888;89;20239;-81
2023/08/09 04:13:44;;;;;;;1999.90;999.90;;;;;;;;;;6686760;89;20204;-81
2023/08/09 04:23:45;;;;;;;1999.90;999.90;;;;;;;;;;6688068;89;20207;-81
2023/08/09 04:33:49;;;;;;;1999.90;999.90;;;;;;;;;;6687537;89;20300;-82
2023/08/09 04:43:50;;;;;;;1999.90;999.90;;;;;;;;;;6687309;89;20253;-81
2023/08/09 04:53:51;;;;;;;1999.90;999.90;;;;;;;;;;6688911;88;20181;-82
2023/08/09 05:03:52;;;;;;;1999.90;999.90;;;;;;;;;;6692428;89;20244;-81
2023/08/09 05:13:53;;;;;;;1999.90;999.90;;;;;;;;;;6684932;89;20241;-81
2023/08/09 05:23:54;;;;;;;1999.90;999.90;;;;;;;;;;6690075;89;20251;-81
2023/08/09 05:33:56;;;;;;;1999.90;999.90;;;;;;;;;;6685201;89;20219;-82
2023/08/09 05:43:57;;;;;;;1999.90;999.90;;;;;;;;;;6688197;88;20179;-81
2023/08/09 05:53:58;;;;;;;1999.90;999.90;;;;;;;;;;6682946;89;20263;-80
2023/08/09 06:03:59;;;;;;;1999.90;999.90;;;;;;;;;;6680798;89;20215;-80
2023/08/09 06:14:00;;;;;;;1999.90;999.90;;;;;;;;;;6685133;89;20191;-80
2023/08/09 06:24:01;;;;;;;1999.90;999.90;;;;;;;;;;6682695;88;20197;-82
2023/08/09 06:34:03;;;;;;;1999.90;999.90;;;;;;;;;;6686976;89;20223;-82
2023/08/09 06:44:04;;;;;;;1999.90;999.90;;;;;;;;;;6683724;88;20295;-79
2023/08/09 06:54:05;;;;;;;1999.90;999.90;;;;;;;;;;6686247;89;20226;-82
2023/08/09 07:04:06;;;;;;;1999.90;999.90;;;;;;;;;;6676422;89;20239;-80
2023/08/09 07:14:07;;;;;;;1999.90;999.90;;;;;;;;;;6676926;89;20640;-81
2023/08/09 07:24:08;;;;;;;1999.90;999.90;;;;;;;;;;6678129;89;20227;-80
2023/08/09 07:34:09;;;;;;;1999.90;999.90;;;;;;;;;;6680045;89;20221;-80
2023/08/09 07:44:10;;;;;;;1999.90;999.90;;;;;;;;;;6683180;89;20195;-81
2023/08/09 07:54:12;;;;;;;1999.90;999.90;;;;;;;;;;6687120;89;20233;-80
2023/08/09 08:04:14;;;;;;;1999.90;999.90;;;;;;;;;;6682285;89;20358;-80
2023/08/09 08:14:15;;;;;;;1999.90;999.90;;;;;;;;;;6691640;88;20214;-80
2023/08/09 08:24:15;;;;;;;1999.90;999.90;;;;;;;;;;6688747;89;20175;-80
2023/08/09 08:34:17;;;;;;;1999.90;999.90;;;;;;;;;;6689464;89;20314;-81
2023/08/09 08:44:18;;;;;;;1999.90;999.90;;;;;;;;;;6692932;88;20184;-80
2023/08/09 08:54:19;;;;;;;1999.90;999.90;;;;;;;;;;6696889;88;20185;-80
2023/08/09 09:04:20;;;;;;;1999.90;999.90;;;;;;;;;;6697420;88;20183;-80
2023/08/09 09:14:22;;;;;;;1999.90;999.90;;;;;;;;;;6701829;78;20233;-76
2023/08/09 09:24:23;;;;;;;1999.90;999.90;;;;;;;;;;6720132;88;20869;-77
2023/08/09 09:34:30;;;;;;;1999.90;999.90;;;;;;;;;;6720929;88;20278;-79
2023/08/09 09:44:32;;;;;;;1999.90;999.90;;;;;;;;;;6718477;88;20263;-78
2023/08/09 09:54:34;;;;;;;1999.90;999.90;;;;;;;;;;6717202;88;20201;-79
2023/08/09 10:04:36;;;;;;;1999.90;999.90;;;;;;;;;;6714510;88;20225;-78
2023/08/09 10:14:37;;;;;;;1999.90;999.90;;;;;;;;;;6719330;88;20342;-79
2023/08/09 10:24:46;;;;;;;1999.90;999.90;;;;;;;;;;6732419;88;20175;-78
2023/08/09 10:34:49;;;;;;;1999.90;999.90;;;;;;;;;;6717617;88;20186;-79
2023/08/09 10:44:50;;;;;;;1999.90;999.90;;;;;;;;;;6719313;88;20189;-78
2023/08/09 10:55:05;;;;;;;1999.90;999.90;;;;;;;;;;6717138;88;20286;-78
2023/08/09 11:05:07;;;;;;;1999.90;999.90;;;;;;;;;;6714355;88;20652;-79
2023/08/09 11:15:08;;;;;;;1999.90;999.90;;;;;;;;;;6712076;88;20195;-78
2023/08/09 11:25:09;;;;;;;1999.90;999.90;;;;;;;;;;6717637;88;20621;-78
2023/08/09 11:35:10;;;;;;;1999.90;999.90;;;;;;;;;;6719555;88;20210;-78
2023/08/09 11:45:11;;;;;;;1999.90;999.90;;;;;;;;;;6714149;88;20184;-78
2023/08/09 11:55:12;;;;;;;1999.90;999.90;;;;;;;;;;6711928;88;20216;-78
2023/08/09 12:05:14;;;;;;;1999.90;999.90;;;;;;;;;;6710431;88;20661;-78
2023/08/09 12:15:15;;;;;;;1999.90;999.90;;;;;;;;;;6712936;88;20223;-78
2023/08/09 12:25:16;;;;;;;1999.90;999.90;;;;;;;;;;6715851;88;20759;-79
2023/08/09 12:35:17;;;;;;;1999.90;999.90;;;;;;;;;;6716793;88;20301;-78
2023/08/09 12:45:18;;;;;;;1999.90;999.90;;;;;;;;;;6711956;88;20174;-77
2023/08/09 12:55:19;;;;;;;1999.90;999.90;;;;;;;;;;6710276;88;20232;-77
2023/08/09 13:05:21;;;;;;;1999.90;999.90;;;;;;;;;;6718354;88;20198;-78
2023/08/09 13:15:22;;;;;;;1999.90;999.90;;;;;;;;;;6715959;88;20386;-77
2023/08/09 13:25:23;;;;;;;1999.90;999.90;;;;;;;;;;6714313;88;20712;-77
2023/08/09 13:35:24;;;;;;;1999.90;999.90;;;;;;;;;;6718556;88;20175;-78
2023/08/09 13:45:25;;;;;;;1999.90;999.90;;;;;;;;;;6714108;88;20227;-78
2023/08/09 13:55:26;;;;;;;1999.90;999.90;;;;;;;;;;6719493;88;20450;-77
2023/08/09 14:05:27;;;;;;;1999.90;999.90;;;;;;;;;;6722383;88;20231;-77
2023/08/09 14:15:28;;;;;;;1999.90;999.90;;;;;;;;;;6722585;88;20238;-77
2023/08/09 14:25:29;;;;;;;1999.90;999.90;;;;;;;;;;6722053;88;20657;-77
2023/08/09 14:35:30;;;;;;;1999.90;999.90;;;;;;;;;;6728346;88;20211;-77
2023/08/09 14:45:32;;;;;;;1999.90;999.90;;;;;;;;;;6723819;88;20190;-77
2023/08/09 14:55:33;;;;;;;1999.90;999.90;;;;;;;;;;6724389;88;20201;-76
2023/08/09 15:05:34;;;;;;;1999.90;999.90;;;;;;;;;;6713498;88;20199;-75
2023/08/09 15:15:35;;;;;;;1999.90;999.90;;;;;;;;;;6709740;88;20228;-75
2023/08/09 15:25:36;;;;;;;1999.90;999.90;;;;;;;;;;6711580;88;20201;-78
2023/08/09 15:35:37;;;;;;;1999.90;999.90;;;;;;;;;;6713316;88;20219;-79
2023/08/09 15:45:38;;;;;;;1999.90;999.90;;;;;;;;;;6716741;88;20248;-79
2023/08/09 15:55:39;;;;;;;1999.90;999.90;;;;;;;;;;6719769;88;20328;-79
2023/08/09 16:05:41;;;;;;;1999.90;999.90;;;;;;;;;;6717842;88;20233;-80
2023/08/09 16:15:42;;;;;;;1999.90;999.90;;;;;;;;;;6728497;88;20185;-79
2023/08/09 16:25:43;;;;;;;1999.90;999.90;;;;;;;;;;6721314;88;20190;-79
2023/08/09 16:35:44;;;;;;;1999.90;999.90;;;;;;;;;;6720825;88;20936;-80
2023/08/09 16:45:45;;;;;;;1999.90;999.90;;;;;;;;;;6719620;88;20197;-80
2023/08/09 16:55:46;;;;;;;1999.90;999.90;;;;;;;;;;6714793;88;20211;-78
2023/08/09 17:05:47;;;;;;;1999.90;999.90;;;;;;;;;;6715430;88;20242;-81
2023/08/09 17:15:48;;;;;;;1999.90;999.90;;;;;;;;;;6715269;88;20212;-78
2023/08/09 17:25:49;;;;;;;1999.90;999.90;;;;;;;;;;6715561;88;20252;-79
2023/08/09 17:35:50;;;;;;;1999.90;999.90;;;;;;;;;;6722042;88;20264;-79
2023/08/09 17:45:51;;;;;;;1999.90;999.90;;;;;;;;;;6730398;88;20178;-80
2023/08/09 17:55:52;;;;;;;1999.90;999.90;;;;;;;;;;6720903;88;20263;-78
2023/08/09 18:05:53;;;;;;;1999.90;999.90;;;;;;;;;;6715137;88;20247;-80
2023/08/09 18:15:54;;;;;;;1999.90;999.90;;;;;;;;;;6721219;88;20290;-78
2023/08/09 18:25:55;;;;;;;1999.90;999.90;;;;;;;;;;6718578;88;20175;-80
2023/08/09 18:35:58;;;;;;;1999.90;999.90;;;;;;;;;;6724890;88;20745;-78
2023/08/09 18:45:59;;;;;;;1999.90;999.90;;;;;;;;;;6734911;88;20215;-79
2023/08/09 18:56:00;;;;;;;1999.90;999.90;;;;;;;;;;6720657;88;20185;-79
2023/08/09 19:06:01;;;;;;;1999.90;999.90;;;;;;;;;;6718904;88;20670;-79
2023/08/09 19:16:04;;;;;;;1999.90;999.90;;;;;;;;;;6733784;88;20206;-78
2023/08/09 19:26:05;;;;;;;1999.90;999.90;;;;;;;;;;6728841;88;20185;-78
2023/08/09 19:36:07;;;;;;;1999.90;999.90;;;;;;;;;;6724415;88;20647;-79
2023/08/09 19:46:08;;;;;;;1999.90;999.90;;;;;;;;;;6720794;88;20327;-78
2023/08/09 19:56:09;;;;;;;1999.90;999.90;;;;;;;;;;6723338;88;20308;-78
2023/08/09 20:06:11;;;;;;;1999.90;999.90;;;;;;;;;;6723477;88;20701;-78
2023/08/09 20:16:12;;;;;;;1999.90;999.90;;;;;;;;;;6723417;88;20210;-79
2023/08/09 20:26:13;;;;;;;1999.90;999.90;;;;;;;;;;6723813;88;20197;-78
2023/08/09 20:36:14;;;;;;;1999.90;999.90;;;;;;;;;;6714051;88;20218;-78
2023/08/09 20:46:15;;;;;;;1999.90;999.90;;;;;;;;;;6710426;88;20211;-79
2023/08/09 20:56:16;;;;;;;1999.90;999.90;;;;;;;;;;6715178;88;20209;-80
2023/08/09 21:06:17;;;;;;;1999.90;999.90;;;;;;;;;;6712089;88;20316;-79
2023/08/09 21:16:18;;;;;;;1999.90;999.90;;;;;;;;;;6709915;88;20213;-80
2023/08/09 21:26:19;;;;;;;1999.90;999.90;;;;;;;;;;6707554;88;20669;-79
2023/08/09 21:36:21;;;;;;;1999.90;999.90;;;;;;;;;;6718450;88;20201;-80
2023/08/09 21:46:22;;;;;;;1999.90;999.90;;;;;;;;;;6739747;88;20200;-79
2023/08/09 21:56:24;;;;;;;1999.90;999.90;;;;;;;;;;6727996;88;20321;-79
2023/08/09 22:06:25;;;;;;;1999.90;999.90;;;;;;;;;;6717161;88;20190;-79
2023/08/09 22:16:26;;;;;;;1999.90;999.90;;;;;;;;;;6716107;88;20714;-80
2023/08/09 22:26:27;;;;;;;1999.90;999.90;;;;;;;;;;6727718;88;20185;-81
2023/08/09 22:36:28;;;;;;;1999.90;999.90;;;;;;;;;;6731055;88;20248;-78
2023/08/09 22:46:29;;;;;;;1999.90;999.90;;;;;;;;;;6728713;88;20211;-78
2023/08/09 22:56:30;;;;;;;1999.90;999.90;;;;;;;;;;6733670;88;20214;-78
2023/08/09 23:06:32;;;;;;;1999.90;999.90;;;;;;;;;;6725279;88;20241;-78
2023/08/09 23:16:33;;;;;;;1999.90;999.90;;;;;;;;;;6723082;88;20220;-78
2023/08/09 23:26:34;;;;;;;1999.90;999.90;;;;;;;;;;6718521;88;20217;-78
2023/08/09 23:36:35;;;;;;;1999.90;999.90;;;;;;;;;;6724287;88;20193;-78
2023/08/09 23:46:36;;;;;;;1999.90;999.90;;;;;;;;;;6710776;88;20223;-78
2023/08/09 23:56:37;;;;;;;1999.90;999.90;;;;;;;;;;6725582;88;20218;-78
